createdAt,value
2017-10-05T00:00:00.405Z,89.66
2017-10-05T00:02:30.159Z,89.42
2017-10-05T00:04:59.896Z,89.08
2017-10-05T00:07:29.689Z,89.02
2017-10-05T00:09:59.427Z,89.16
2017-10-05T00:12:29.170Z,88.58
2017-10-05T00:14:58.916Z,87.69
2017-10-05T00:17:28.663Z,87.73
2017-10-05T00:19:58.299Z,87.53
2017-10-05T00:22:28.057Z,87.26
2017-10-05T00:24:57.869Z,87.66
2017-10-05T00:27:29.527Z,87.74
2017-10-05T00:29:59.263Z,86.96
2017-10-05T00:32:28.992Z,87.19
2017-10-05T00:34:58.726Z,87.43
2017-10-05T00:37:28.454Z,87.03
2017-10-05T00:39:58.242Z,86.71
2017-10-05T00:42:28.023Z,86.65
2017-10-05T00:44:57.772Z,86.32
2017-10-05T00:47:27.337Z,86.78
2017-10-05T00:49:56.966Z,86.16
2017-10-05T00:52:26.349Z,85.98
2017-10-05T00:54:55.737Z,85.92
2017-10-05T00:57:24.947Z,86.44
2017-10-05T00:59:54.686Z,86.51
2017-10-05T01:02:24.456Z,86.24
2017-10-05T01:04:54.208Z,86.34
2017-10-05T01:07:23.972Z,86.14
2017-10-05T01:09:53.730Z,85.86
2017-10-05T01:12:23.501Z,86.01
2017-10-05T01:14:53.098Z,86.04
2017-10-05T01:17:22.669Z,86.48
2017-10-05T01:19:52.065Z,86.46
2017-10-05T01:22:21.853Z,85.99
2017-10-05T01:24:51.236Z,85.21
2017-10-05T01:27:20.989Z,85.38
2017-10-05T01:29:50.742Z,85.49
2017-10-05T01:32:20.464Z,85.59
2017-10-05T01:34:49.868Z,85.42
2017-10-05T01:37:19.611Z,85.71
2017-10-05T01:39:49.357Z,85.34
2017-10-05T01:42:19.145Z,85.33
2017-10-05T01:44:48.873Z,85.16
2017-10-05T01:47:18.622Z,85.10
2017-10-05T01:49:48.364Z,84.81
2017-10-05T01:52:17.813Z,84.58
2017-10-05T01:54:47.612Z,83.82
2017-10-05T01:57:17.353Z,83.73
2017-10-05T01:59:47.105Z,83.58
2017-10-05T02:02:16.875Z,83.96
2017-10-05T02:04:46.604Z,83.50
2017-10-05T02:07:16.198Z,83.93
2017-10-05T02:09:46.172Z,83.30
2017-10-05T02:12:15.916Z,83.21
2017-10-05T02:14:45.685Z,83.49
2017-10-05T02:17:15.460Z,82.77
2017-10-05T02:19:45.039Z,82.98
2017-10-05T02:22:14.786Z,82.52
2017-10-05T02:24:44.532Z,82.21
2017-10-05T02:27:14.270Z,82.20
2017-10-05T02:29:44.007Z,81.89
2017-10-05T02:32:13.744Z,81.46
2017-10-05T02:34:43.495Z,82.11
2017-10-05T02:37:13.275Z,82.03
2017-10-05T02:39:43.018Z,81.70
2017-10-05T02:42:12.830Z,81.50
2017-10-05T02:44:42.587Z,81.75
2017-10-05T02:47:12.326Z,81.00
2017-10-05T02:49:42.101Z,81.82
2017-10-05T02:52:11.685Z,81.13
2017-10-05T02:54:41.440Z,80.59
2017-10-05T02:57:11.186Z,80.75
2017-10-05T02:59:40.947Z,80.04
2017-10-05T03:02:10.709Z,81.13
2017-10-05T03:04:40.463Z,80.90
2017-10-05T03:07:10.192Z,81.33
2017-10-05T03:09:39.938Z,80.63
2017-10-05T03:12:09.694Z,80.40
2017-10-05T03:14:39.417Z,80.90
2017-10-05T03:17:09.168Z,81.47
2017-10-05T03:19:38.957Z,81.13
2017-10-05T03:22:08.676Z,80.99
2017-10-05T03:24:38.257Z,81.18
2017-10-05T03:27:07.848Z,81.65
2017-10-05T03:29:37.381Z,80.77
2017-10-05T03:32:07.128Z,81.10
2017-10-05T03:34:36.693Z,80.29
2017-10-05T03:37:06.426Z,80.79
2017-10-05T03:39:36.190Z,80.94
2017-10-05T03:42:05.963Z,81.41
2017-10-05T03:44:35.708Z,81.86
2017-10-05T03:47:05.462Z,82.15
2017-10-05T03:49:35.214Z,81.43
2017-10-05T03:52:04.778Z,80.82
2017-10-05T03:54:34.357Z,81.44
2017-10-05T03:57:03.924Z,80.92
2017-10-05T03:59:33.485Z,81.27
2017-10-05T04:02:03.120Z,81.12
2017-10-05T04:04:32.975Z,81.30
2017-10-05T04:07:02.520Z,80.82
2017-10-05T04:09:32.282Z,81.05
2017-10-05T04:12:01.816Z,81.25
2017-10-05T04:14:31.561Z,81.63
2017-10-05T04:17:01.283Z,81.83
2017-10-05T04:19:31.030Z,82.08
2017-10-05T04:22:00.764Z,82.38
2017-10-05T04:24:30.606Z,83.16
2017-10-05T04:27:00.327Z,83.45
2017-10-05T04:29:30.252Z,83.47
2017-10-05T04:32:00.034Z,84.08
2017-10-05T04:34:29.866Z,84.67
2017-10-05T04:36:59.620Z,84.52
2017-10-05T04:39:29.366Z,85.25
2017-10-05T04:41:59.162Z,84.96
2017-10-05T04:44:29.443Z,84.76
2017-10-05T04:46:59.802Z,85.45
2017-10-05T04:49:29.561Z,85.81
2017-10-05T04:51:59.362Z,86.14
2017-10-05T04:54:28.933Z,86.03
2017-10-05T04:56:58.357Z,86.21
2017-10-05T04:59:28.822Z,85.52
2017-10-05T05:01:58.552Z,85.90
2017-10-05T05:04:28.305Z,85.46
2017-10-05T05:06:57.850Z,86.30
2017-10-05T05:09:27.567Z,84.97
2017-10-05T05:11:57.320Z,82.63
2017-10-05T05:14:27.097Z,83.51
2017-10-05T05:16:56.738Z,82.13
2017-10-05T05:19:26.510Z,82.75
2017-10-05T05:21:56.368Z,81.37
2017-10-05T05:24:26.189Z,81.99
2017-10-05T05:26:56.003Z,81.63
2017-10-05T05:29:25.801Z,81.65
2017-10-05T05:31:55.632Z,81.24
2017-10-05T05:34:25.388Z,80.96
2017-10-05T05:36:55.356Z,80.55
2017-10-05T05:39:25.105Z,78.95
2017-10-05T05:41:54.954Z,79.62
2017-10-05T05:44:24.710Z,79.23
2017-10-05T05:46:54.532Z,78.98
2017-10-05T05:49:24.285Z,78.35
2017-10-05T05:51:54.189Z,78.39
2017-10-05T05:54:24.042Z,78.92
2017-10-05T05:56:53.461Z,78.14
2017-10-05T05:59:23.211Z,78.19
2017-10-05T06:01:52.610Z,78.00
2017-10-05T06:04:22.344Z,77.39
2017-10-05T06:06:52.001Z,77.97
2017-10-05T06:09:21.765Z,78.67
2017-10-05T06:11:51.540Z,76.52
2017-10-05T06:14:21.221Z,77.35
2017-10-05T06:16:50.771Z,76.74
2017-10-05T06:19:20.541Z,76.12
2017-10-05T06:21:50.312Z,76.48
2017-10-05T06:24:20.096Z,76.10
2017-10-05T06:26:49.834Z,75.95
2017-10-05T06:29:19.576Z,75.04
2017-10-05T06:31:49.383Z,75.58
2017-10-05T06:34:19.192Z,74.93
2017-10-05T06:36:48.968Z,73.12
2017-10-05T06:39:18.754Z,72.84
2017-10-05T06:41:48.512Z,72.43
2017-10-05T06:44:18.278Z,71.62
2017-10-05T06:46:48.034Z,71.92
2017-10-05T06:49:21.571Z,71.49
2017-10-05T06:51:51.448Z,71.43
2017-10-05T06:54:21.177Z,71.40
2017-10-05T06:56:50.912Z,71.78
2017-10-05T06:59:20.657Z,70.93
2017-10-05T07:01:50.422Z,70.34
2017-10-05T07:04:20.191Z,69.83
2017-10-05T07:06:50.008Z,70.08
2017-10-05T07:09:19.791Z,69.39
2017-10-05T07:11:49.542Z,68.84
2017-10-05T07:14:19.283Z,70.61
2017-10-05T07:16:49.040Z,68.81
2017-10-05T07:19:18.820Z,68.96
2017-10-05T07:21:48.585Z,68.97
2017-10-05T07:24:18.339Z,68.31
2017-10-05T07:26:48.080Z,68.50
2017-10-05T07:29:17.808Z,67.44
2017-10-05T07:31:47.553Z,67.07
2017-10-05T07:34:17.296Z,66.61
2017-10-05T07:36:47.028Z,66.58
2017-10-05T07:39:16.816Z,66.65
2017-10-05T07:41:46.582Z,67.68
2017-10-05T07:44:16.320Z,67.86
2017-10-05T07:46:46.055Z,67.08
2017-10-05T07:49:15.806Z,66.93
2017-10-05T07:51:45.545Z,66.96
2017-10-05T07:54:15.294Z,66.65
2017-10-05T07:56:44.769Z,66.54
2017-10-05T07:59:14.226Z,65.89
2017-10-05T08:01:44.015Z,66.78
2017-10-05T08:04:13.319Z,66.64
2017-10-05T08:06:43.097Z,67.07
2017-10-05T08:09:12.864Z,66.97
2017-10-05T08:11:42.628Z,67.59
2017-10-05T08:14:11.934Z,66.93
2017-10-05T08:16:41.383Z,66.91
2017-10-05T08:19:11.210Z,67.15
2017-10-05T08:21:40.717Z,67.21
2017-10-05T08:24:10.156Z,66.92
2017-10-05T08:26:39.625Z,66.81
2017-10-05T08:29:09.073Z,66.34
2017-10-05T08:31:38.524Z,66.53
2017-10-05T08:34:07.989Z,66.27
2017-10-05T08:36:37.436Z,66.17
2017-10-05T08:39:06.884Z,65.01
2017-10-05T08:41:36.352Z,64.48
2017-10-05T08:44:05.806Z,63.28
2017-10-05T08:46:35.256Z,62.23
2017-10-05T08:49:04.702Z,62.95
2017-10-05T08:51:33.831Z,64.42
2017-10-05T08:54:03.289Z,64.75
2017-10-05T08:56:32.753Z,64.83
2017-10-05T08:59:02.044Z,63.55
2017-10-05T09:01:31.294Z,62.48
2017-10-05T09:04:00.590Z,60.74
2017-10-05T09:06:29.857Z,59.61
2017-10-05T09:08:59.320Z,58.49
2017-10-05T09:11:28.557Z,58.15
2017-10-05T09:13:58.008Z,57.58
2017-10-05T09:16:27.531Z,56.57
2017-10-05T09:18:56.816Z,56.77
2017-10-05T09:21:26.275Z,55.16
2017-10-05T09:23:55.726Z,54.40
2017-10-05T09:26:25.385Z,53.33
2017-10-05T09:28:54.830Z,52.82
2017-10-05T09:31:24.285Z,51.14
2017-10-05T09:33:53.825Z,51.46
2017-10-05T09:36:23.311Z,51.00
2017-10-05T09:38:52.758Z,50.45
2017-10-05T09:41:22.223Z,49.62
2017-10-05T09:43:51.677Z,50.38
2017-10-05T09:46:21.180Z,49.86
2017-10-05T09:48:50.622Z,47.84
2017-10-05T09:51:21.284Z,45.01
2017-10-05T09:53:50.803Z,42.93
2017-10-05T09:56:20.306Z,41.02
2017-10-05T09:58:50.012Z,40.71
2017-10-05T10:01:19.472Z,39.88
2017-10-05T10:03:49.223Z,39.78
2017-10-05T10:06:19.205Z,36.55
2017-10-05T10:08:50.230Z,34.14
2017-10-05T10:11:19.871Z,34.06
2017-10-05T10:13:49.354Z,34.77
2017-10-05T10:16:19.980Z,34.74
2017-10-05T10:18:49.610Z,35.39
2017-10-05T10:21:19.181Z,36.80
2017-10-05T10:23:48.680Z,35.11
2017-10-05T10:26:18.753Z,36.80
2017-10-05T10:28:48.220Z,35.16
2017-10-05T10:31:17.686Z,34.26
2017-10-05T10:33:47.147Z,33.88
2017-10-05T10:36:16.618Z,34.46
2017-10-05T10:38:46.151Z,35.24
2017-10-05T10:41:15.592Z,35.18
2017-10-05T10:43:45.054Z,35.06
2017-10-05T10:46:14.533Z,35.13
2017-10-05T10:48:43.995Z,35.04
2017-10-05T10:51:13.463Z,34.76
2017-10-05T10:53:44.541Z,33.55
2017-10-05T10:56:15.618Z,33.09
2017-10-05T10:58:46.220Z,31.27
2017-10-05T11:01:16.609Z,31.59
2017-10-05T11:03:47.314Z,30.06
2017-10-05T11:06:16.929Z,29.89
2017-10-05T11:08:46.360Z,28.21
2017-10-05T11:11:15.924Z,27.32
2017-10-05T11:13:45.474Z,28.03
2017-10-05T11:16:14.945Z,27.68
2017-10-05T11:18:44.608Z,26.96
2017-10-05T11:21:14.114Z,24.04
2017-10-05T11:23:44.070Z,23.34
2017-10-05T11:26:14.005Z,21.28
2017-10-05T11:28:43.576Z,19.47
2017-10-05T11:31:13.033Z,16.73
2017-10-05T11:33:42.469Z,14.80
2017-10-05T11:36:11.988Z,13.78
2017-10-05T11:38:41.445Z,16.15
2017-10-05T11:41:10.965Z,20.04
2017-10-05T11:43:40.476Z,21.32
2017-10-05T11:46:10.081Z,22.14
2017-10-05T11:48:39.577Z,24.46
2017-10-05T11:51:09.496Z,24.16
2017-10-05T11:53:39.024Z,23.44
2017-10-05T11:56:08.506Z,23.47
2017-10-05T11:58:38.041Z,23.18
2017-10-05T12:01:07.587Z,24.05
2017-10-05T12:03:37.704Z,17.47
2017-10-05T12:06:07.426Z,15.79
2017-10-05T12:08:36.886Z,13.79
2017-10-05T12:11:06.356Z,11.99
2017-10-05T12:13:35.829Z,11.48
2017-10-05T12:16:05.406Z,13.33
2017-10-05T12:18:34.865Z,10.89
2017-10-05T12:21:04.328Z,11.21
2017-10-05T12:23:33.791Z,11.93
2017-10-05T12:26:03.242Z,11.68
2017-10-05T12:28:32.704Z,12.51
2017-10-05T12:31:02.145Z,11.71
2017-10-05T12:33:31.599Z,12.10
2017-10-05T12:36:00.952Z,11.61
2017-10-05T12:38:31.931Z,10.86
2017-10-05T12:41:01.440Z,10.20
2017-10-05T12:43:30.890Z,10.05
2017-10-05T12:46:00.355Z,9.53
2017-10-05T12:48:29.801Z,8.97
2017-10-05T12:50:59.260Z,9.62
2017-10-05T12:53:29.491Z,9.39
2017-10-05T12:55:59.814Z,10.37
2017-10-05T12:58:29.459Z,10.61
2017-10-05T13:00:58.912Z,11.04
2017-10-05T13:03:28.445Z,12.23
2017-10-05T13:06:01.881Z,12.40
2017-10-05T13:08:31.317Z,11.72
2017-10-05T13:11:00.910Z,13.62
2017-10-05T13:13:30.428Z,11.73
2017-10-05T13:15:59.868Z,11.62
2017-10-05T13:18:29.431Z,10.02
2017-10-05T13:20:58.888Z,11.29
2017-10-05T13:23:28.338Z,13.35
2017-10-05T13:25:57.859Z,16.27
2017-10-05T13:28:27.316Z,17.09
2017-10-05T13:30:56.746Z,17.92
2017-10-05T13:33:26.214Z,19.84
2017-10-05T13:35:55.770Z,20.32
2017-10-05T13:38:25.390Z,19.01
2017-10-05T13:40:55.171Z,19.28
2017-10-05T13:43:24.748Z,19.99
2017-10-05T13:45:55.282Z,17.54
2017-10-05T13:48:24.717Z,17.23
2017-10-05T13:50:54.179Z,18.79
2017-10-05T13:53:23.652Z,20.76
2017-10-05T13:55:53.125Z,22.10
2017-10-05T13:58:22.595Z,22.85
2017-10-05T14:00:52.917Z,24.67
2017-10-05T14:03:22.402Z,24.40
2017-10-05T14:05:51.876Z,24.54
2017-10-05T14:08:24.849Z,24.65
2017-10-05T14:10:54.309Z,24.81
2017-10-05T14:13:27.589Z,24.34
2017-10-05T14:15:57.073Z,24.31
2017-10-05T14:18:26.629Z,25.20
2017-10-05T14:20:56.075Z,24.52
2017-10-05T14:23:25.569Z,24.52
2017-10-05T14:25:55.159Z,25.02
2017-10-05T14:28:24.619Z,24.40
2017-10-05T14:30:54.164Z,26.74
2017-10-05T14:33:23.640Z,24.65
2017-10-05T14:35:53.188Z,23.21
2017-10-05T14:38:22.730Z,25.11
2017-10-05T14:40:52.160Z,23.87
2017-10-05T14:43:21.715Z,23.66
2017-10-05T14:45:51.194Z,24.50
2017-10-05T14:48:20.679Z,22.97
2017-10-05T14:50:50.110Z,24.58
2017-10-05T14:53:19.590Z,24.32
2017-10-05T14:55:49.016Z,24.22
2017-10-05T14:58:18.506Z,24.40
2017-10-05T15:00:47.964Z,24.15
2017-10-05T15:03:17.415Z,24.56
2017-10-05T15:05:46.860Z,24.75
2017-10-05T15:08:16.231Z,25.24
2017-10-05T15:10:45.542Z,25.50
2017-10-05T15:13:15.025Z,26.44
2017-10-05T15:15:44.472Z,26.29
2017-10-05T15:18:13.932Z,26.54
2017-10-05T15:20:43.386Z,27.01
2017-10-05T15:23:12.869Z,27.20
2017-10-05T15:25:42.327Z,27.28
2017-10-05T15:28:11.769Z,27.50
2017-10-05T15:30:41.239Z,29.06
2017-10-05T15:33:11.632Z,29.43
2017-10-05T15:35:41.081Z,29.58
2017-10-05T15:38:10.533Z,30.32
2017-10-05T15:40:40.004Z,30.68
2017-10-05T15:43:09.490Z,31.40
2017-10-05T15:45:38.502Z,31.15
2017-10-05T15:48:07.790Z,31.96
2017-10-05T15:50:37.337Z,31.62
2017-10-05T15:53:06.808Z,31.86
2017-10-05T15:55:36.263Z,32.22
2017-10-05T15:58:05.859Z,32.15
2017-10-05T16:00:35.401Z,32.40
2017-10-05T16:03:04.864Z,32.64
2017-10-05T16:05:34.333Z,33.54
2017-10-05T16:08:03.781Z,35.36
2017-10-05T16:10:33.296Z,35.87
2017-10-05T16:13:02.742Z,36.03
2017-10-05T16:15:32.246Z,36.82
2017-10-05T16:18:01.818Z,36.08
2017-10-05T16:20:31.265Z,35.69
2017-10-05T16:23:00.892Z,34.98
2017-10-05T16:25:30.339Z,34.77
2017-10-05T16:27:59.805Z,34.56
2017-10-05T16:30:29.303Z,35.56
2017-10-05T16:32:58.763Z,34.94
2017-10-05T16:35:28.261Z,35.35
2017-10-05T16:37:57.699Z,35.30
2017-10-05T16:40:27.180Z,35.92
2017-10-05T16:42:56.633Z,34.64
2017-10-05T16:45:26.162Z,34.66
2017-10-05T16:47:55.714Z,35.60
2017-10-05T16:50:25.172Z,34.92
2017-10-05T16:52:54.640Z,35.66
2017-10-05T16:55:24.091Z,35.49
2017-10-05T16:57:53.658Z,36.21
2017-10-05T17:00:23.173Z,36.82
2017-10-05T17:02:52.505Z,38.28
2017-10-05T17:05:21.960Z,38.99
2017-10-05T17:07:51.420Z,39.50
2017-10-05T17:10:20.910Z,40.89
2017-10-05T17:12:50.371Z,41.62
2017-10-05T17:15:19.821Z,42.68
2017-10-05T17:17:49.290Z,42.95
2017-10-05T17:20:18.759Z,43.88
2017-10-05T17:22:48.288Z,44.40
2017-10-05T17:25:17.809Z,44.90
2017-10-05T17:27:47.280Z,46.00
2017-10-05T17:30:16.712Z,47.97
2017-10-05T17:32:46.221Z,49.74
2017-10-05T17:35:15.658Z,50.06
2017-10-05T17:37:45.112Z,50.84
2017-10-05T17:40:14.560Z,52.57
2017-10-05T17:42:44.019Z,53.06
2017-10-05T17:45:13.654Z,54.00
2017-10-05T17:47:43.156Z,55.30
2017-10-05T17:50:12.599Z,56.16
2017-10-05T17:52:42.058Z,57.56
2017-10-05T17:55:11.550Z,58.75
2017-10-05T17:57:41.049Z,60.02
2017-10-05T18:00:10.497Z,61.87
2017-10-05T18:02:39.773Z,62.79
2017-10-05T18:05:09.294Z,63.78
2017-10-05T18:07:38.770Z,64.48
2017-10-05T18:10:08.238Z,66.17
2017-10-05T18:12:37.685Z,66.24
2017-10-05T18:15:07.393Z,66.01
2017-10-05T18:17:36.853Z,67.55
2017-10-05T18:20:06.326Z,67.27
2017-10-05T18:22:35.780Z,68.42
2017-10-05T18:25:05.290Z,69.62
2017-10-05T18:27:34.797Z,70.30
2017-10-05T18:30:05.028Z,71.63
2017-10-05T18:32:34.494Z,71.91
2017-10-05T18:35:03.976Z,71.93
2017-10-05T18:37:33.437Z,72.75
2017-10-05T18:40:02.911Z,72.06
2017-10-05T18:42:32.531Z,72.14
2017-10-05T18:45:01.971Z,74.29
2017-10-05T18:47:31.439Z,75.69
2017-10-05T18:50:00.952Z,75.38
2017-10-05T18:52:30.437Z,75.98
2017-10-05T18:54:59.981Z,77.19
2017-10-05T18:57:29.430Z,76.42
2017-10-05T18:59:59.744Z,77.19
2017-10-05T19:02:29.199Z,76.81
2017-10-05T19:04:59.148Z,78.15
2017-10-05T19:07:28.614Z,79.50
2017-10-05T19:09:58.623Z,78.12
2017-10-05T19:12:28.102Z,79.69
2017-10-05T19:14:57.796Z,78.67
2017-10-05T19:17:27.759Z,79.29
2017-10-05T19:19:57.422Z,80.77
2017-10-05T19:22:27.431Z,80.69
2017-10-05T19:24:57.132Z,81.32
2017-10-05T19:27:27.431Z,82.80
2017-10-05T19:29:57.678Z,83.77
2017-10-05T19:32:27.793Z,83.11
2017-10-05T19:34:59.383Z,82.71
2017-10-05T19:37:29.736Z,78.73
2017-10-05T19:40:03.262Z,79.92
2017-10-05T19:42:33.567Z,80.90
2017-10-05T19:45:03.520Z,82.98
2017-10-05T19:47:33.445Z,83.89
2017-10-05T19:50:03.611Z,83.21
2017-10-05T19:52:34.100Z,84.59
2017-10-05T19:55:04.439Z,85.00
2017-10-05T19:57:34.494Z,83.88
2017-10-05T20:00:04.650Z,84.53
2017-10-05T20:02:35.271Z,84.06
2017-10-05T20:05:05.497Z,81.60
2017-10-05T20:07:35.580Z,81.29
2017-10-05T20:10:06.085Z,80.95
2017-10-05T20:12:35.986Z,81.31
2017-10-05T20:15:11.814Z,81.16
2017-10-05T20:17:50.549Z,80.42
2017-10-05T20:23:24.884Z,82.37
2017-10-05T20:25:54.934Z,82.63
2017-10-05T20:28:25.760Z,82.30
2017-10-05T20:30:57.144Z,83.92
2017-10-05T20:33:27.318Z,82.83
2017-10-05T20:35:57.264Z,83.56
2017-10-05T20:38:27.611Z,83.37
2017-10-05T20:40:58.040Z,83.78
2017-10-05T20:43:28.217Z,83.63
2017-10-05T20:45:58.155Z,83.71
2017-10-05T20:48:28.557Z,84.43
2017-10-05T20:50:58.436Z,84.63
2017-10-05T20:53:29.494Z,84.78
2017-10-05T20:55:59.471Z,86.09
2017-10-05T20:58:29.513Z,84.97
2017-10-05T21:00:59.252Z,86.29
2017-10-05T21:03:29.323Z,86.23
2017-10-05T21:05:59.091Z,85.57
2017-10-05T21:08:28.858Z,86.23
2017-10-05T21:10:58.728Z,86.13
2017-10-05T21:13:28.524Z,85.97
2017-10-05T21:15:58.263Z,85.77
2017-10-05T21:18:28.052Z,85.45
2017-10-05T21:20:57.804Z,85.75
2017-10-05T21:23:27.688Z,86.12
2017-10-05T21:25:57.432Z,85.62
2017-10-05T21:28:27.177Z,85.41
2017-10-05T21:30:56.936Z,86.27
2017-10-05T21:33:26.875Z,85.76
2017-10-05T21:35:56.645Z,84.71
2017-10-05T21:38:26.222Z,84.42
2017-10-05T21:40:56.010Z,83.60
2017-10-05T21:43:26.184Z,84.67
2017-10-05T21:45:55.930Z,84.67
2017-10-05T21:48:25.658Z,84.99
2017-10-05T21:50:55.418Z,84.68
2017-10-05T21:53:25.218Z,84.79
2017-10-05T21:55:54.989Z,83.91
2017-10-05T21:58:24.766Z,84.11
2017-10-05T22:00:54.545Z,84.33
2017-10-05T22:03:24.335Z,84.34
2017-10-05T22:05:54.717Z,84.84
2017-10-05T22:08:24.443Z,84.53
2017-10-05T22:10:54.222Z,84.64
2017-10-05T22:13:23.947Z,85.02
2017-10-05T22:15:53.693Z,85.21
2017-10-05T22:18:23.466Z,85.64
2017-10-05T22:20:53.222Z,83.90
2017-10-05T22:23:22.997Z,84.87
2017-10-05T22:25:52.742Z,83.76
2017-10-05T22:28:22.514Z,83.61
2017-10-05T22:30:52.263Z,82.45
2017-10-05T22:33:22.012Z,83.60
2017-10-05T22:35:51.733Z,83.22
2017-10-05T22:38:21.476Z,83.54
2017-10-05T22:40:51.230Z,83.11
2017-10-05T22:43:20.970Z,83.19
2017-10-05T22:45:50.713Z,83.09
2017-10-05T22:48:20.483Z,82.67
2017-10-05T22:50:50.219Z,82.43
2017-10-05T22:53:20.001Z,82.79
2017-10-05T22:55:49.755Z,82.09
2017-10-05T22:58:19.513Z,82.16
2017-10-05T23:00:49.253Z,82.25
2017-10-05T23:03:18.999Z,82.58
2017-10-05T23:05:48.745Z,81.55
2017-10-05T23:08:18.505Z,81.29
2017-10-05T23:10:48.282Z,81.93
2017-10-05T23:13:18.048Z,81.31
2017-10-05T23:15:47.797Z,81.39
2017-10-05T23:18:17.556Z,81.43
2017-10-05T23:20:47.322Z,81.83
2017-10-05T23:23:16.906Z,81.57
2017-10-05T23:25:46.647Z,81.28
2017-10-05T23:28:16.405Z,81.39
2017-10-05T23:30:46.166Z,82.09
2017-10-05T23:33:15.912Z,82.56
2017-10-05T23:35:45.661Z,81.40
2017-10-05T23:38:15.430Z,81.34
2017-10-05T23:43:45.530Z,82.94
2017-10-05T23:46:15.273Z,82.29
2017-10-05T23:48:45.022Z,82.01
2017-10-05T23:51:14.782Z,82.21
2017-10-05T23:53:44.539Z,80.94
2017-10-05T23:56:14.301Z,81.21
2017-10-05T23:58:44.033Z,81.41
